Time;durP1;ratioP1;P1;durP2;ratioP2;P2;SDS_P1;SDS_P2;PMS_P1;PMS_P2;Temp;Humidity;BMP_temperature;BMP_pressure;BME280_temperature;BME280_humidity;BME280_pressure;Samples;Min_cycle;Max_cycle;Signal;HPM_P1;HPM_P2
2022/11/29 00:01:00;;;;;;;;;;;7.40;88.20;;;;;;4994065;28;19992;-79
2022/11/29 00:03:26;;;;;;;;;;;7.40;88.20;;;;;;4993937;28;19906;-80
2022/11/29 00:05:52;;;;;;;;;;;7.50;88.40;;;;;;4994082;28;19906;-79
2022/11/29 00:08:18;;;;;;;;;;;7.40;88.20;;;;;;4994080;28;20277;-80
2022/11/29 00:10:44;;;;;;;;;;;7.40;88.30;;;;;;4997356;28;20388;-81
2022/11/29 00:13:09;;;;;;;;;;;7.40;89.00;;;;;;4998042;28;19909;-80
2022/11/29 00:15:35;;;;;;;;;;;7.40;88.40;;;;;;4998842;28;20404;-80
2022/11/29 00:18:01;;;;;;;;;;;7.50;88.10;;;;;;4998384;28;19906;-80
2022/11/29 00:20:26;;;;;;;;;;;7.50;88.00;;;;;;4998342;28;19913;-81
2022/11/29 00:22:52;;;;;;;;;;;7.40;87.70;;;;;;4997549;28;19949;-80
2022/11/29 00:25:17;;;;;;;;;;;7.40;88.00;;;;;;4997862;28;19913;-80
2022/11/29 00:27:43;;;;;;;;;;;7.30;88.30;;;;;;4998997;28;20025;-79
2022/11/29 00:30:08;;;;;;;;;;;7.30;88.40;;;;;;4996788;28;19913;-79
2022/11/29 00:32:34;;;;;;;;;;;7.20;88.20;;;;;;4997335;28;19906;-79
2022/11/29 00:35:00;;;;;;;;;;;7.30;88.40;;;;;;4997303;28;19916;-79
2022/11/29 00:37:25;;;;;;;;;;;7.30;88.40;;;;;;4997359;28;19956;-79
2022/11/29 00:39:51;;;;;;;;;;;7.30;88.30;;;;;;4979490;28;19909;-80
2022/11/29 00:42:16;;;;;;;;;;;7.30;88.40;;;;;;4996862;28;19949;-79
2022/11/29 00:44:42;;;;;;;;;;;7.30;88.10;;;;;;4997060;28;19906;-79
2022/11/29 00:47:07;;;;;;;;;;;7.30;87.80;;;;;;4997074;28;20086;-83
2022/11/29 00:49:33;;;;;;;;;;;7.30;87.70;;;;;;4997405;28;19913;-80
2022/11/29 00:51:58;;;;;;;;;;;7.40;87.40;;;;;;4997148;28;19906;-79
2022/11/29 00:54:24;;;;;;;;;;;7.30;87.20;;;;;;4996917;28;19913;-80
2022/11/29 00:56:49;;;;;;;;;;;7.30;87.00;;;;;;4979408;28;20332;-80
2022/11/29 00:59:15;;;;;;;;;;;7.30;86.70;;;;;;4996748;28;19905;-80
2022/11/29 01:01:40;;;;;;;;;;;7.30;86.10;;;;;;4996922;28;19913;-80
2022/11/29 01:04:06;;;;;;;;;;;7.30;86.30;;;;;;4978876;28;20048;-80
2022/11/29 01:06:31;;;;;;;;;;;7.30;86.50;;;;;;4996428;28;20290;-81
2022/11/29 01:08:57;;;;;;;;;;;7.20;86.00;;;;;;4979068;28;19916;-80
2022/11/29 01:11:24;;;;;;;;;;;7.20;86.20;;;;;;4978924;28;19910;-81
2022/11/29 01:13:52;;;;;;;;;;;7.20;86.30;;;;;;4996266;28;19912;-81
2022/11/29 01:16:17;;;;;;;;;;;7.20;86.30;;;;;;4996217;28;19905;-80
2022/11/29 01:18:43;;;;;;;;;;;7.30;86.30;;;;;;4978981;28;19968;-81
2022/11/29 01:21:10;;;;;;;;;;;7.20;85.80;;;;;;4978658;28;20334;-80
2022/11/29 01:23:36;;;;;;;;;;;7.20;85.60;;;;;;4996314;28;20355;-82
2022/11/29 01:26:06;;;;;;;;;;;7.20;85.70;;;;;;4996433;28;19913;-80
2022/11/29 01:28:32;;;;;;;;;;;7.20;85.50;;;;;;4978992;28;19905;-80
2022/11/29 01:30:58;;;;;;;;;;;7.20;85.40;;;;;;4996329;28;19996;-80
2022/11/29 01:33:23;;;;;;;;;;;7.20;85.30;;;;;;4996244;28;20322;-79
2022/11/29 01:35:50;;;;;;;;;;;7.20;85.30;;;;;;4996410;28;19912;-81
2022/11/29 01:38:15;;;;;;;;;;;7.20;85.40;;;;;;4998134;28;19913;-94
2022/11/29 01:40:41;;;;;;;;;;;7.30;85.50;;;;;;4997573;28;20285;-93
2022/11/29 01:43:16;;;;;;;;;;;7.30;84.70;;;;;;4997386;28;20437;-89
2022/11/29 01:45:43;;;;;;;;;;;7.20;84.40;;;;;;4997556;28;20004;-90
2022/11/29 01:48:09;;;;;;;;;;;7.10;84.40;;;;;;4997965;28;19992;-90
2022/11/29 01:50:36;;;;;;;;;;;7.10;84.80;;;;;;4997500;28;19934;-88
2022/11/29 01:53:01;;;;;;;;;;;7.20;84.50;;;;;;4980417;28;19905;-89
2022/11/29 01:55:27;;;;;;;;;;;7.20;84.70;;;;;;4997557;28;19937;-89
2022/11/29 01:57:52;;;;;;;;;;;7.20;84.90;;;;;;4996867;28;20355;-79
2022/11/29 02:00:18;;;;;;;;;;;7.20;84.80;;;;;;4978943;28;20274;-81
2022/11/29 02:02:50;;;;;;;;;;;7.20;84.40;;;;;;4995759;28;19906;-83
2022/11/29 02:05:17;;;;;;;;;;;7.20;84.50;;;;;;4978461;28;20010;-81
2022/11/29 02:07:44;;;;;;;;;;;7.20;84.20;;;;;;4995874;28;19940;-80
2022/11/29 02:10:10;;;;;;;;;;;7.20;84.30;;;;;;4995797;28;19956;-80
2022/11/29 02:13:05;;;;;;;;;;;7.20;84.50;;;;;;4997805;28;20262;-80
2022/11/29 02:15:33;;;;;;;;;;;7.20;84.70;;;;;;4988527;28;19910;-80
2022/11/29 02:18:03;;;;;;;;;;;7.20;85.00;;;;;;4999061;28;19948;-80
2022/11/29 02:20:47;;;;;;;;;;;7.20;85.20;;;;;;4996816;28;19910;-82
2022/11/29 02:23:27;;;;;;;;;;;7.20;85.20;;;;;;4996109;28;20373;-82
2022/11/29 02:26:11;;;;;;;;;;;7.20;85.30;;;;;;4996195;28;19913;-81
2022/11/29 02:28:42;;;;;;;;;;;7.20;85.20;;;;;;4995927;28;20273;-83
2022/11/29 02:31:17;;;;;;;;;;;7.20;85.30;;;;;;4978185;28;19906;-84
2022/11/29 02:33:45;;;;;;;;;;;7.20;85.40;;;;;;4995415;28;20334;-82
2022/11/29 02:36:11;;;;;;;;;;;7.30;85.40;;;;;;4981367;28;19894;-81
2022/11/29 02:38:54;;;;;;;;;;;7.20;85.40;;;;;;4997840;28;19906;-81
2022/11/29 02:41:20;;;;;;;;;;;7.20;85.50;;;;;;4996038;28;20270;-84
2022/11/29 02:44:18;;;;;;;;;;;7.20;86.50;;;;;;4996029;28;19906;-80
2022/11/29 02:47:01;;;;;;;;;;;7.20;85.90;;;;;;4974815;28;19906;-80
2022/11/29 02:49:45;;;;;;;;;;;7.20;85.90;;;;;;4996713;28;19976;-80
2022/11/29 02:52:18;;;;;;;;;;;7.20;86.40;;;;;;4996163;28;20258;-80
2022/11/29 02:54:49;;;;;;;;;;;7.20;86.00;;;;;;4997762;28;19929;-80
2022/11/29 02:57:21;;;;;;;;;;;7.20;85.90;;;;;;4997418;28;19952;-91
2022/11/29 03:00:00;;;;;;;;;;;7.20;85.90;;;;;;4997862;28;19940;-92
2022/11/29 03:02:31;;;;;;;;;;;7.20;85.90;;;;;;4997765;28;20285;-92
2022/11/29 03:05:11;;;;;;;;;;;7.20;85.90;;;;;;4998055;28;19913;-90
2022/11/29 03:07:55;;;;;;;;;;;7.10;85.90;;;;;;5014887;28;19906;-88
2022/11/29 03:10:39;;;;;;;;;;;7.20;85.80;;;;;;5018882;28;19913;-81
2022/11/29 03:13:09;;;;;;;;;;;7.10;85.80;;;;;;4987238;28;19914;-79
2022/11/29 03:15:40;;;;;;;;;;;7.00;85.80;;;;;;5015674;28;19964;-91
2022/11/29 03:18:19;;;;;;;;;;;7.10;86.10;;;;;;5001509;28;19910;-92
2022/11/29 03:21:05;;;;;;;;;;;7.10;86.20;;;;;;5018826;28;19898;-80
2022/11/29 03:23:35;;;;;;;;;;;7.00;86.50;;;;;;5018327;28;19917;-90
2022/11/29 03:26:13;;;;;;;;;;;7.00;86.50;;;;;;5005999;28;19961;-91
2022/11/29 03:28:49;;;;;;;;;;;7.00;86.50;;;;;;4996504;28;19996;-91
2022/11/29 03:31:36;;;;;;;;;;;7.00;86.60;;;;;;4994819;28;19912;-80
2022/11/29 03:34:09;;;;;;;;;;;7.00;86.90;;;;;;4994367;28;19948;-80
2022/11/29 03:36:38;;;;;;;;;;;6.90;87.00;;;;;;4994326;28;19936;-79
2022/11/29 03:39:04;;;;;;;;;;;6.90;87.10;;;;;;4995191;28;19906;-79
2022/11/29 03:41:43;;;;;;;;;;;7.00;87.20;;;;;;4994021;28;19918;-80
2022/11/29 03:44:16;;;;;;;;;;;7.00;87.30;;;;;;4994499;28;19906;-79
2022/11/29 03:47:07;;;;;;;;;;;7.00;87.20;;;;;;4994295;28;19937;-80
2022/11/29 03:49:36;;;;;;;;;;;7.00;87.20;;;;;;4992252;28;20373;-80
2022/11/29 03:52:16;;;;;;;;;;;7.00;87.10;;;;;;4994307;28;19952;-80
2022/11/29 03:55:04;;;;;;;;;;;7.00;87.10;;;;;;4994112;28;19928;-80
2022/11/29 03:57:40;;;;;;;;;;;6.90;86.80;;;;;;4993795;28;19910;-80
2022/11/29 04:00:07;;;;;;;;;;;6.90;86.70;;;;;;4994351;28;20299;-83
2022/11/29 04:02:43;;;;;;;;;;;6.90;86.80;;;;;;4994018;28;19906;-80
2022/11/29 04:05:11;;;;;;;;;;;6.80;86.80;;;;;;4994315;28;19912;-80
2022/11/29 04:07:43;;;;;;;;;;;6.80;87.00;;;;;;4976908;28;20376;-89
2022/11/29 04:10:47;;;;;;;;;;;6.70;87.40;;;;;;4977293;28;20289;-82
2022/11/29 04:13:24;;;;;;;;;;;6.70;87.60;;;;;;4953486;29;19945;-82
2022/11/29 04:15:50;;;;;;;;;;;6.60;87.80;;;;;;4953368;29;19945;-82
2022/11/29 04:18:29;;;;;;;;;;;6.60;87.80;;;;;;4975245;28;19913;-79
2022/11/29 04:21:04;;;;;;;;;;;6.60;87.80;;;;;;4994106;28;19906;-80
2022/11/29 04:23:48;;;;;;;;;;;6.70;88.00;;;;;;4994412;28;19917;-88
2022/11/29 04:26:27;;;;;;;;;;;6.70;87.90;;;;;;4994460;28;19906;-88
2022/11/29 04:29:06;;;;;;;;;;;6.70;87.90;;;;;;4993633;28;20004;-79
2022/11/29 04:31:44;;;;;;;;;;;6.70;87.90;;;;;;4993621;28;19928;-79
2022/11/29 04:34:33;;;;;;;;;;;6.70;87.80;;;;;;4993820;28;20542;-79
2022/11/29 04:37:07;;;;;;;;;;;6.70;87.70;;;;;;4993627;28;19951;-77
2022/11/29 04:39:48;;;;;;;;;;;6.80;88.50;;;;;;4993714;28;19906;-77
2022/11/29 04:42:31;;;;;;;;;;;6.80;87.70;;;;;;4993651;28;20000;-77
2022/11/29 04:45:03;;;;;;;;;;;6.80;87.70;;;;;;4993807;28;19906;-77
2022/11/29 04:47:41;;;;;;;;;;;6.80;87.70;;;;;;4977125;28;19906;-83
2022/11/29 04:50:06;;;;;;;;;;;6.80;87.60;;;;;;4994673;28;19920;-84
2022/11/29 04:52:38;;;;;;;;;;;6.80;87.60;;;;;;4996535;28;19906;-83
2022/11/29 04:55:03;;;;;;;;;;;6.80;87.60;;;;;;5001556;28;19913;-84
2022/11/29 04:57:29;;;;;;;;;;;6.90;87.70;;;;;;5004185;28;19906;-87
2022/11/29 05:00:12;;;;;;;;;;;6.90;87.50;;;;;;4983612;28;19959;-86
2022/11/29 05:02:54;;;;;;;;;;;6.90;87.40;;;;;;4981135;28;19906;-80
2022/11/29 05:05:28;;;;;;;;;;;6.80;85.60;;;;;;4998262;28;19905;-89
2022/11/29 05:08:08;;;;;;;;;;;6.80;86.00;;;;;;4998568;28;20366;-88
2022/11/29 05:10:40;;;;;;;;;;;6.80;86.50;;;;;;4999662;28;19914;-88
2022/11/29 05:13:11;;;;;;;;;;;6.90;86.60;;;;;;4998043;28;20354;-87
2022/11/29 05:15:49;;;;;;;;;;;6.80;85.70;;;;;;4998667;28;19913;-93
2022/11/29 05:18:34;;;;;;;;;;;6.80;86.00;;;;;;4981214;28;20261;-88
2022/11/29 05:21:07;;;;;;;;;;;6.80;86.00;;;;;;4999359;28;20362;-79
2022/11/29 05:23:33;;;;;;;;;;;6.90;85.50;;;;;;4988069;28;19920;-80
2022/11/29 05:26:01;;;;;;;;;;;6.90;85.20;;;;;;5000728;28;19906;-80
2022/11/29 05:28:45;;;;;;;;;;;6.90;84.50;;;;;;5004259;28;19906;-82
2022/11/29 05:31:24;;;;;;;;;;;6.90;84.00;;;;;;4997293;28;19940;-79
2022/11/29 05:34:09;;;;;;;;;;;6.90;83.70;;;;;;4996437;28;20293;-80
2022/11/29 05:36:38;;;;;;;;;;;6.90;83.50;;;;;;4996468;28;20413;-79
2022/11/29 05:39:17;;;;;;;;;;;6.90;83.40;;;;;;4996374;28;19906;-91
2022/11/29 05:41:51;;;;;;;;;;;6.90;83.40;;;;;;4996512;28;20261;-80
2022/11/29 05:44:22;;;;;;;;;;;6.90;83.70;;;;;;4996115;28;19906;-80
2022/11/29 05:46:53;;;;;;;;;;;6.90;83.70;;;;;;4978596;28;19906;-80
2022/11/29 05:49:37;;;;;;;;;;;6.90;83.70;;;;;;4978261;28;19920;-80
2022/11/29 05:52:02;;;;;;;;;;;7.00;83.00;;;;;;4995959;28;19910;-80
2022/11/29 05:54:31;;;;;;;;;;;6.90;83.20;;;;;;4995887;28;19906;-79
2022/11/29 05:57:16;;;;;;;;;;;6.90;83.80;;;;;;4978508;28;20293;-82
2022/11/29 05:59:43;;;;;;;;;;;7.00;84.10;;;;;;4996196;28;19905;-90
2022/11/29 06:02:08;;;;;;;;;;;7.00;84.50;;;;;;4996944;28;20350;-89
2022/11/29 06:04:53;;;;;;;;;;;7.00;84.70;;;;;;4979840;28;19912;-89
2022/11/29 06:07:21;;;;;;;;;;;7.00;85.00;;;;;;4995381;28;19912;-84
2022/11/29 06:10:00;;;;;;;;;;;7.00;85.20;;;;;;4996433;28;20009;-80
2022/11/29 06:12:26;;;;;;;;;;;7.00;85.20;;;;;;5007013;28;19905;-82
2022/11/29 06:15:16;;;;;;;;;;;7.00;85.20;;;;;;5017688;28;19960;-80
2022/11/29 06:17:47;;;;;;;;;;;7.00;85.20;;;;;;5004618;28;19906;-80
2022/11/29 06:20:28;;;;;;;;;;;7.00;85.20;;;;;;5011336;28;19893;-81
2022/11/29 06:23:03;;;;;;;;;;;7.00;85.30;;;;;;5019827;28;19898;-79
2022/11/29 06:25:47;;;;;;;;;;;7.00;85.70;;;;;;5019690;28;19902;-78
2022/11/29 06:28:37;;;;;;;;;;;7.00;86.40;;;;;;5020034;28;19925;-78
2022/11/29 06:31:02;;;;;;;;;;;7.00;85.60;;;;;;5017065;28;19913;-80
2022/11/29 06:33:52;;;;;;;;;;;7.00;85.70;;;;;;5009452;28;19914;-86
2022/11/29 06:36:21;;;;;;;;;;;7.00;85.90;;;;;;4979297;28;19936;-88
2022/11/29 06:38:47;;;;;;;;;;;7.00;86.10;;;;;;4980097;28;19998;-90
2022/11/29 06:41:15;;;;;;;;;;;7.00;86.10;;;;;;4996397;28;19957;-84
2022/11/29 06:43:40;;;;;;;;;;;7.00;86.10;;;;;;4997417;28;19910;-84
2022/11/29 06:46:06;;;;;;;;;;;7.00;86.20;;;;;;4980799;28;19912;-87
2022/11/29 06:48:37;;;;;;;;;;;7.00;86.20;;;;;;4996164;28;19906;-85
2022/11/29 06:51:18;;;;;;;;;;;6.90;86.20;;;;;;4980488;28;19910;-83
2022/11/29 06:53:44;;;;;;;;;;;6.90;86.20;;;;;;4997807;28;20325;-80
2022/11/29 06:56:18;;;;;;;;;;;7.00;86.30;;;;;;4996572;28;19918;-86
2022/11/29 06:58:54;;;;;;;;;;;7.00;86.40;;;;;;5001274;28;19913;-79
2022/11/29 07:01:35;;;;;;;;;;;7.00;86.50;;;;;;4996852;28;19975;-84
2022/11/29 07:04:07;;;;;;;;;;;7.00;86.40;;;;;;4995527;28;20421;-87
2022/11/29 07:06:33;;;;;;;;;;;7.00;86.60;;;;;;4996623;28;19913;-85
2022/11/29 07:09:00;;;;;;;;;;;7.00;86.60;;;;;;4997671;28;19935;-86
2022/11/29 07:11:25;;;;;;;;;;;7.10;86.60;;;;;;4985909;28;19963;-78
2022/11/29 07:13:51;;;;;;;;;;;7.00;86.50;;;;;;5000120;28;20379;-80
2022/11/29 07:16:27;;;;;;;;;;;7.00;86.70;;;;;;4976917;28;19905;-79
2022/11/29 07:19:02;;;;;;;;;;;7.10;86.80;;;;;;4976596;28;19905;-79
2022/11/29 07:21:31;;;;;;;;;;;7.10;86.70;;;;;;4977195;28;19906;-79
2022/11/29 07:24:03;;;;;;;;;;;7.00;86.40;;;;;;4993965;28;19924;-79
2022/11/29 07:26:32;;;;;;;;;;;7.10;86.60;;;;;;4995032;28;19913;-79
2022/11/29 07:29:03;;;;;;;;;;;7.10;86.40;;;;;;4997255;28;19910;-79
2022/11/29 07:31:47;;;;;;;;;;;7.10;86.30;;;;;;4999639;28;19910;-79
2022/11/29 07:34:13;;;;;;;;;;;7.10;86.20;;;;;;5016812;28;20008;-80
2022/11/29 07:36:44;;;;;;;;;;;7.10;86.30;;;;;;5015244;28;19905;-79
2022/11/29 07:39:15;;;;;;;;;;;7.10;86.40;;;;;;5007805;28;19921;-79
2022/11/29 07:42:05;;;;;;;;;;;7.10;86.30;;;;;;4994261;28;19910;-78
2022/11/29 07:44:37;;;;;;;;;;;7.10;85.90;;;;;;4993956;28;19948;-79
2022/11/29 07:47:03;;;;;;;;;;;7.10;86.00;;;;;;4993914;28;20001;-80
2022/11/29 07:49:28;;;;;;;;;;;7.00;86.10;;;;;;4983119;28;19937;-88
2022/11/29 07:51:54;;;;;;;;;;;7.00;86.30;;;;;;4995134;28;20350;-79
2022/11/29 07:54:20;;;;;;;;;;;7.00;86.50;;;;;;4993723;28;20099;-80
2022/11/29 07:56:45;;;;;;;;;;;7.00;86.40;;;;;;4994282;28;20020;-81
2022/11/29 07:59:11;;;;;;;;;;;7.00;86.30;;;;;;4994361;28;19905;-81
2022/11/29 08:01:38;;;;;;;;;;;7.00;86.30;;;;;;4977191;28;19905;-81
2022/11/29 08:04:03;;;;;;;;;;;7.10;86.50;;;;;;4998315;28;19905;-80
2022/11/29 08:06:29;;;;;;;;;;;7.00;86.50;;;;;;4986221;28;19906;-90
2022/11/29 08:08:57;;;;;;;;;;;7.10;86.80;;;;;;4989760;28;19932;-88
2022/11/29 08:11:23;;;;;;;;;;;7.10;86.60;;;;;;4979981;28;19910;-81
2022/11/29 08:13:49;;;;;;;;;;;7.20;86.40;;;;;;4978502;28;19913;-79
2022/11/29 08:16:17;;;;;;;;;;;7.10;86.20;;;;;;4994223;28;20365;-81
2022/11/29 08:18:43;;;;;;;;;;;7.10;85.10;;;;;;4998776;28;19905;-86
2022/11/29 08:21:09;;;;;;;;;;;7.10;84.80;;;;;;4978403;28;19912;-86
2022/11/29 08:23:34;;;;;;;;;;;7.10;84.70;;;;;;4979749;28;19918;-87
2022/11/29 08:26:01;;;;;;;;;;;7.10;84.90;;;;;;4978397;28;19960;-87
2022/11/29 08:28:26;;;;;;;;;;;7.10;84.90;;;;;;4994171;28;19976;-80
2022/11/29 08:31:02;;;;;;;;;;;7.40;90.80;;;;;;4995183;28;20371;-79
2022/11/29 08:33:28;;;;;;;;;;;7.90;91.50;;;;;;4997190;28;19906;-83
2022/11/29 08:35:54;;;;;;;;;;;8.10;87.80;;;;;;4997253;28;19912;-81
2022/11/29 08:38:19;;;;;;;;;;;8.40;85.60;;;;;;4997434;28;19937;-78
2022/11/29 08:40:44;;;;;;;;;;;8.40;83.80;;;;;;4997111;28;19953;-79
2022/11/29 08:43:10;;;;;;;;;;;8.60;82.80;;;;;;4979516;28;20434;-77
2022/11/29 08:45:35;;;;;;;;;;;8.60;81.30;;;;;;4996853;28;20000;-78
2022/11/29 08:48:01;;;;;;;;;;;8.50;79.40;;;;;;4997136;28;19906;-87
2022/11/29 08:50:26;;;;;;;;;;;8.70;80.70;;;;;;4983245;28;19913;-82
2022/11/29 08:55:39;;;;;;;;;;;8.40;79.40;;;;;;4997789;28;19913;-83
2022/11/29 08:58:06;;;;;;;;;;;8.30;80.10;;;;;;4979597;28;19909;-83
2022/11/29 09:00:32;;;;;;;;;;;8.10;80.70;;;;;;4997180;28;19905;-84
2022/11/29 09:03:58;;;;;;;;;;;8.00;81.30;;;;;;4980054;28;19913;-83
2022/11/29 09:05:43;;;;;;;;;;;7.90;81.30;;;;;;4996635;28;20376;-82
2022/11/29 09:08:09;;;;;;;;;;;7.90;81.50;;;;;;4996676;28;20004;-83
2022/11/29 09:10:34;;;;;;;;;;;7.80;81.80;;;;;;4996847;28;19920;-83
2022/11/29 09:13:00;;;;;;;;;;;7.70;82.30;;;;;;4996720;28;20285;-84
2022/11/29 09:15:25;;;;;;;;;;;7.70;82.60;;;;;;4978904;28;19952;-82
2022/11/29 09:17:50;;;;;;;;;;;7.70;82.90;;;;;;4996557;28;20357;-83
2022/11/29 09:20:16;;;;;;;;;;;7.70;83.20;;;;;;4979633;28;19965;-84
2022/11/29 09:22:42;;;;;;;;;;;7.60;83.40;;;;;;4997186;28;19981;-85
2022/11/29 09:25:07;;;;;;;;;;;7.70;83.40;;;;;;4979320;28;19956;-86
2022/11/29 09:27:33;;;;;;;;;;;7.60;83.50;;;;;;4979231;28;20412;-84
2022/11/29 09:29:58;;;;;;;;;;;7.60;83.80;;;;;;4978978;28;20012;-85
2022/11/29 09:32:24;;;;;;;;;;;7.60;84.40;;;;;;4978969;28;19906;-84
2022/11/29 09:34:49;;;;;;;;;;;7.60;85.00;;;;;;4996404;28;19929;-84
2022/11/29 09:37:15;;;;;;;;;;;7.60;85.10;;;;;;4978829;28;19909;-82
2022/11/29 09:39:40;;;;;;;;;;;7.70;85.30;;;;;;4978769;28;19960;-84
2022/11/29 09:42:26;;;;;;;;;;;7.70;85.00;;;;;;4995653;28;20051;-81
2022/11/29 09:45:01;;;;;;;;;;;7.70;84.60;;;;;;4995981;28;20024;-80
2022/11/29 09:47:33;;;;;;;;;;;7.70;84.60;;;;;;4979051;28;20004;-82
2022/11/29 09:50:11;;;;;;;;;;;7.60;84.60;;;;;;4996259;28;19914;-82
2022/11/29 09:52:39;;;;;;;;;;;7.60;84.80;;;;;;4995845;28;19961;-82
2022/11/29 09:55:24;;;;;;;;;;;7.60;84.80;;;;;;4996000;28;19949;-84
2022/11/29 09:57:51;;;;;;;;;;;7.60;85.30;;;;;;4995647;28;19949;-83
2022/11/29 10:00:21;;;;;;;;;;;7.60;85.30;;;;;;4996093;28;19906;-86
2022/11/29 10:02:52;;;;;;;;;;;7.50;85.60;;;;;;4979222;28;19910;-91
2022/11/29 10:05:30;;;;;;;;;;;7.50;85.60;;;;;;4998173;28;20022;-91
2022/11/29 10:08:15;;;;;;;;;;;7.40;86.00;;;;;;4998456;28;19936;-90
2022/11/29 10:10:43;;;;;;;;;;;7.50;86.10;;;;;;4997151;28;20014;-92
2022/11/29 10:13:23;;;;;;;;;;;7.50;86.20;;;;;;4998131;28;19945;-91
2022/11/29 10:15:52;;;;;;;;;;;7.50;85.90;;;;;;4997867;28;19992;-90
2022/11/29 10:18:19;;;;;;;;;;;7.50;86.40;;;;;;4997391;28;20008;-88
2022/11/29 10:20:47;;;;;;;;;;;7.50;86.50;;;;;;4996990;28;19992;-88
2022/11/29 10:23:21;;;;;;;;;;;7.50;86.40;;;;;;4997092;28;19918;-89
2022/11/29 10:25:48;;;;;;;;;;;7.50;86.20;;;;;;4997604;28;19906;-83
2022/11/29 10:28:21;;;;;;;;;;;7.50;86.10;;;;;;5015461;28;20232;-84
2022/11/29 10:30:47;;;;;;;;;;;7.60;86.00;;;;;;4998473;28;19918;-84
2022/11/29 10:33:24;;;;;;;;;;;7.60;86.80;;;;;;4994032;28;20259;-82
2022/11/29 10:35:53;;;;;;;;;;;7.50;86.90;;;;;;4978637;28;19906;-86
2022/11/29 10:38:18;;;;;;;;;;;7.60;86.60;;;;;;4979491;28;19913;-83
2022/11/29 10:40:46;;;;;;;;;;;7.50;86.80;;;;;;4977686;28;19909;-81
2022/11/29 10:43:11;;;;;;;;;;;7.50;86.40;;;;;;4977290;28;19968;-82
2022/11/29 10:45:48;;;;;;;;;;;7.50;86.60;;;;;;4995228;28;20041;-87
2022/11/29 10:48:19;;;;;;;;;;;7.50;86.60;;;;;;4977955;28;19913;-85
2022/11/29 10:50:47;;;;;;;;;;;7.50;86.30;;;;;;4996249;28;19914;-88
2022/11/29 10:53:14;;;;;;;;;;;7.60;86.20;;;;;;4978842;28;19952;-84
2022/11/29 10:55:43;;;;;;;;;;;7.60;86.10;;;;;;4995759;28;20385;-85
2022/11/29 10:58:08;;;;;;;;;;;7.60;86.20;;;;;;4995509;28;19906;-84
2022/11/29 11:00:44;;;;;;;;;;;7.50;86.70;;;;;;4995748;28;19928;-87
2022/11/29 11:03:28;;;;;;;;;;;7.50;87.20;;;;;;4979818;28;19906;-89
2022/11/29 11:05:56;;;;;;;;;;;7.50;87.20;;;;;;4983191;28;19950;-94
2022/11/29 11:08:23;;;;;;;;;;;7.50;86.90;;;;;;4982499;28;19906;-95
2022/11/29 11:10:54;;;;;;;;;;;7.50;86.70;;;;;;4980285;28;19914;-93
2022/11/29 11:13:20;;;;;;;;;;;7.50;87.30;;;;;;4978109;28;19906;-81
2022/11/29 11:15:46;;;;;;;;;;;7.40;87.20;;;;;;4976912;28;19941;-83
2022/11/29 11:18:18;;;;;;;;;;;7.40;87.60;;;;;;5000661;28;19906;-82
2022/11/29 11:20:50;;;;;;;;;;;7.40;87.70;;;;;;4977652;28;19906;-82
2022/11/29 11:23:26;;;;;;;;;;;7.40;87.50;;;;;;4995590;28;19909;-83
2022/11/29 11:26:12;;;;;;;;;;;7.50;87.70;;;;;;4994984;28;20040;-83
2022/11/29 11:28:52;;;;;;;;;;;7.50;87.70;;;;;;4976662;28;19989;-89
2022/11/29 11:31:31;;;;;;;;;;;7.60;87.70;;;;;;4997925;28;19921;-84
2022/11/29 11:34:16;;;;;;;;;;;7.50;87.50;;;;;;4997162;28;19906;-83
2022/11/29 11:36:41;;;;;;;;;;;7.60;87.30;;;;;;4995506;28;20376;-84
2022/11/29 11:39:11;;;;;;;;;;;7.60;87.20;;;;;;4996173;28;19945;-84
2022/11/29 11:44:31;;;;;;;;;;;7.60;86.90;;;;;;4995349;28;19916;-83
2022/11/29 11:46:58;;;;;;;;;;;7.70;87.20;;;;;;4979814;28;19928;-83
2022/11/29 11:49:35;;;;;;;;;;;7.70;87.20;;;;;;4998928;28;19910;-86
2022/11/29 11:52:02;;;;;;;;;;;7.70;87.50;;;;;;4987112;28;19920;-81
2022/11/29 11:54:28;;;;;;;;;;;7.70;87.50;;;;;;5010682;28;19906;-84
2022/11/29 11:56:54;;;;;;;;;;;7.80;87.60;;;;;;5003046;28;20008;-82
2022/11/29 11:59:21;;;;;;;;;;;7.70;87.80;;;;;;4994400;28;19908;-83
2022/11/29 12:01:46;;;;;;;;;;;7.70;87.70;;;;;;5000553;28;19898;-84
2022/11/29 12:04:21;;;;;;;;;;;7.70;87.90;;;;;;5016810;28;19929;-83
2022/11/29 12:06:52;;;;;;;;;;;7.70;88.20;;;;;;5002288;28;19898;-83
2022/11/29 12:09:21;;;;;;;;;;;7.70;88.30;;;;;;5003036;28;20301;-83
2022/11/29 12:12:05;;;;;;;;;;;7.70;88.40;;;;;;4998225;28;20013;-82
2022/11/29 12:14:53;;;;;;;;;;;7.60;89.40;;;;;;4997988;28;19909;-82
2022/11/29 12:17:37;;;;;;;;;;;7.60;88.90;;;;;;4979774;28;19906;-84
2022/11/29 12:20:14;;;;;;;;;;;7.60;89.30;;;;;;4980791;28;19948;-84
2022/11/29 12:22:50;;;;;;;;;;;7.60;89.00;;;;;;4997608;28;19905;-87
2022/11/29 12:25:18;;;;;;;;;;;7.70;89.00;;;;;;4979974;28;19929;-83
2022/11/29 12:27:44;;;;;;;;;;;7.70;88.90;;;;;;4980198;28;20295;-83
2022/11/29 12:30:13;;;;;;;;;;;7.80;88.80;;;;;;4979778;28;19937;-83
2022/11/29 12:32:56;;;;;;;;;;;7.70;88.90;;;;;;4979722;28;20425;-82
2022/11/29 12:35:30;;;;;;;;;;;7.70;88.80;;;;;;4996877;28;19929;-80
2022/11/29 12:38:21;;;;;;;;;;;7.70;88.80;;;;;;4997211;28;19905;-80
2022/11/29 12:41:13;;;;;;;;;;;7.70;89.00;;;;;;4997252;28;20344;-83
2022/11/29 12:43:53;;;;;;;;;;;7.60;89.20;;;;;;4982647;28;19941;-80
2022/11/29 12:46:26;;;;;;;;;;;7.60;89.50;;;;;;4998268;28;19906;-86
2022/11/29 12:49:04;;;;;;;;;;;7.60;89.60;;;;;;4980307;28;19976;-83
2022/11/29 12:51:38;;;;;;;;;;;7.60;89.60;;;;;;4980266;28;19909;-81
2022/11/29 12:54:12;;;;;;;;;;;7.70;89.60;;;;;;4997517;28;19912;-84
2022/11/29 12:56:44;;;;;;;;;;;7.70;89.60;;;;;;4980582;28;19941;-85
2022/11/29 12:59:32;;;;;;;;;;;7.70;89.50;;;;;;4980469;28;19913;-84
2022/11/29 13:02:19;;;;;;;;;;;7.70;89.40;;;;;;4980198;28;19913;-85
2022/11/29 13:04:50;;;;;;;;;;;7.60;89.50;;;;;;4979792;28;19906;-82
2022/11/29 13:07:22;;;;;;;;;;;7.60;89.60;;;;;;4997222;28;19953;-88
2022/11/29 13:10:02;;;;;;;;;;;7.60;89.80;;;;;;4980548;28;19914;-85
2022/11/29 13:12:41;;;;;;;;;;;7.60;89.80;;;;;;4979438;28;19906;-83
2022/11/29 13:15:17;;;;;;;;;;;7.60;89.70;;;;;;4979525;28;19912;-84
2022/11/29 13:17:47;;;;;;;;;;;7.50;89.70;;;;;;4996468;28;19960;-83
2022/11/29 13:20:12;;;;;;;;;;;7.50;89.70;;;;;;4997359;28;19905;-89
2022/11/29 13:22:43;;;;;;;;;;;7.50;89.90;;;;;;4981075;28;19906;-89
2022/11/29 13:25:17;;;;;;;;;;;7.50;90.20;;;;;;4980858;28;19977;-90
2022/11/29 13:27:49;;;;;;;;;;;7.50;90.30;;;;;;4980904;28;19996;-90
2022/11/29 13:30:15;;;;;;;;;;;7.40;90.50;;;;;;4983157;28;19913;-89
2022/11/29 13:33:00;;;;;;;;;;;7.40;90.60;;;;;;4980679;28;19960;-83
2022/11/29 13:35:29;;;;;;;;;;;7.40;90.70;;;;;;4972592;28;19917;-85
2022/11/29 13:38:14;;;;;;;;;;;7.40;90.50;;;;;;4997150;28;19956;-88
2022/11/29 13:40:48;;;;;;;;;;;7.40;90.80;;;;;;4997447;28;20337;-82
2022/11/29 13:43:21;;;;;;;;;;;7.40;90.70;;;;;;4996384;28;19919;-82
2022/11/29 13:45:53;;;;;;;;;;;7.50;90.90;;;;;;4996481;28;20378;-83
2022/11/29 13:48:27;;;;;;;;;;;7.40;90.90;;;;;;4996498;28;19906;-80
2022/11/29 13:50:53;;;;;;;;;;;7.40;90.70;;;;;;4996624;28;19936;-83
2022/11/29 13:53:20;;;;;;;;;;;7.40;90.80;;;;;;4996516;28;19913;-87
2022/11/29 13:56:01;;;;;;;;;;;7.40;91.00;;;;;;4996722;28;19913;-86
2022/11/29 13:58:27;;;;;;;;;;;7.30;91.30;;;;;;4996795;28;20355;-85
2022/11/29 14:00:53;;;;;;;;;;;7.30;91.70;;;;;;4996307;28;19906;-84
2022/11/29 14:03:22;;;;;;;;;;;7.20;91.70;;;;;;4996813;28;19961;-84
2022/11/29 14:05:51;;;;;;;;;;;7.20;91.60;;;;;;4979841;28;19996;-89
2022/11/29 14:08:26;;;;;;;;;;;7.20;91.70;;;;;;5010241;28;19917;-89
2022/11/29 14:10:53;;;;;;;;;;;7.20;91.70;;;;;;5012610;28;19968;-82
2022/11/29 14:13:20;;;;;;;;;;;7.30;91.60;;;;;;4978100;28;19960;-82
2022/11/29 14:15:52;;;;;;;;;;;7.30;91.40;;;;;;4979356;28;19906;-84
2022/11/29 14:18:36;;;;;;;;;;;7.30;91.30;;;;;;4996218;28;19914;-83
2022/11/29 14:21:02;;;;;;;;;;;7.30;91.30;;;;;;4978795;28;19952;-85
2022/11/29 14:23:32;;;;;;;;;;;7.30;91.40;;;;;;4978981;28;19964;-88
2022/11/29 14:25:58;;;;;;;;;;;7.30;91.40;;;;;;4979016;28;20379;-88
2022/11/29 14:28:23;;;;;;;;;;;7.30;91.20;;;;;;4995156;28;19906;-87
2022/11/29 14:30:49;;;;;;;;;;;7.20;91.20;;;;;;4979008;28;19913;-87
2022/11/29 14:33:17;;;;;;;;;;;7.30;91.40;;;;;;4978760;28;19976;-88
2022/11/29 14:35:47;;;;;;;;;;;7.30;91.60;;;;;;4979527;28;20281;-86
2022/11/29 14:38:18;;;;;;;;;;;7.20;91.50;;;;;;4984313;28;19913;-88
2022/11/29 14:40:47;;;;;;;;;;;7.30;91.50;;;;;;5002003;28;19973;-87
2022/11/29 14:43:18;;;;;;;;;;;7.30;91.50;;;;;;5001737;28;19902;-86
2022/11/29 14:45:44;;;;;;;;;;;7.30;91.40;;;;;;4990464;28;19909;-87
2022/11/29 14:48:27;;;;;;;;;;;7.30;91.20;;;;;;4978954;28;19906;-87
2022/11/29 14:51:07;;;;;;;;;;;7.30;91.30;;;;;;4978262;28;19983;-87
2022/11/29 14:53:34;;;;;;;;;;;7.30;91.40;;;;;;4978462;28;20087;-86
2022/11/29 14:56:38;;;;;;;;;;;7.30;91.40;;;;;;4978784;28;19914;-87
2022/11/29 14:59:22;;;;;;;;;;;7.30;91.20;;;;;;4939055;29;19906;-85
2022/11/29 15:01:48;;;;;;;;;;;7.30;91.20;;;;;;4938527;29;19906;-87
2022/11/29 15:04:14;;;;;;;;;;;7.20;91.10;;;;;;4962203;28;19913;-85